This is the latest recevied weather packets stored in our database for station/object PY3MO-11. If no packets are shown the sender has not sent any weather packets the latest 10 day(s).
| Time | Temp. | Humidity | Pressure | Rain* | Wind** | Luminosity | Snow |
|---|---|---|---|---|---|---|---|
| 1777652142 | 24.44° C | 51% | 1015.8 hPa | 0 mm | - | - | - |
| 1777651842 | 24.44° C | 51% | 1015.9 hPa | 0 mm | - | - | - |
| 1777651541 | 24.44° C | 51% | 1015.9 hPa | 0 mm | - | - | - |
| 1777651241 | 24.44° C | 51% | 1016 hPa | 0 mm | - | - | - |
| 1777650943 | 24.44° C | 51% | 1015.9 hPa | 0 mm | - | - | - |
| 1777650643 | 24.44° C | 51% | 1016 hPa | 0 mm | - | - | - |
| 1777650343 | 24.44° C | 51% | 1016.2 hPa | 0 mm | - | - | - |
| 1777650043 | 23.89° C | 51% | 1016.3 hPa | 0 mm | - | - | - |
| 1777649742 | 24.44° C | 51% | 1016.6 hPa | 0 mm | - | - | - |
| 1777649442 | 24.44° C | 52% | 1016.6 hPa | 0 mm | - | - | - |
| 1777649142 | 23.89° C | 51% | 1016.9 hPa | 0 mm | - | - | - |
| 1777648843 | 23.89° C | 51% | 1016.9 hPa | 0 mm | - | - | - |
| 1777648543 | 23.89° C | 52% | 1017.1 hPa | 0 mm | - | - | - |
| 1777648242 | 23.33° C | 53% | 1017.3 hPa | 0 mm | - | - | - |
| 1777647942 | 22.78° C | 53% | 1017.1 hPa | 0 mm | - | - | - |
| 1777647641 | 22.78° C | 54% | 1017.4 hPa | 0 mm | - | - | - |
| 1777647343 | 22.22° C | 54% | 1017.1 hPa | 0 mm | - | - | - |
| 1777647043 | 22.22° C | 59% | 1017.5 hPa | 0 mm | - | - | - |
| 1777646743 | 22.22° C | 58% | 1017.5 hPa | 0 mm | - | - | - |
| 1777646443 | 22.22° C | 53% | 1017.6 hPa | 0 mm | - | - | - |
| 1777646142 | 22.78° C | 52% | 1017.6 hPa | 0 mm | - | - | - |
| 1777645842 | 22.78° C | 52% | 1018 hPa | 0 mm | - | - | - |
| 1777645542 | 22.22° C | 53% | 1017.7 hPa | 0 mm | - | - | - |
| 1777645242 | 21.67° C | 56% | 1017.8 hPa | 0 mm | - | - | - |
| 1777644942 | 19.44° C | 62% | 1017.9 hPa | 0 mm | - | - | - |
* Rain latest hour (hover to see other rain measurements)
** Current wind speed in m/s (hover to see current wind gust speed)